Liege, Belgium
Current Conditions -  °F | °C
As of 1:50 PM on Wednesday 22 Oct 2014 (Local Time) from EBLG Reporting Station
Scattered Clouds Scattered Clouds  
Wind Chill: 50°   Ceiling: Unl
Heat Index: 50°   Visibility: 6mi
Dew Point: 43°   Wind: 17mph
Humidity: 76%   Direction: 290°WNW
Pressure: 30.12"   Gusts: NA
Location:  50.62°N, 5.6°E
Report Text: EBLG 221150Z 29015KT 260V320 9999 FEW021 SCT032 10/06 Q1020 NOSIG
Loading
Personal Weather Stations






























Interactive Weather Map
Tropical Storm Tracking
New forecast layout! Learn more

10-Day Weather Forecast

Advertisements
Track Severe Weather on mobile